Time;durP1;ratioP1;P1;durP2;ratioP2;P2;SDS_P1;SDS_P2;PMS_P1;PMS_P2;Temp;Humidity;BMP_temperature;BMP_pressure;BME280_temperature;BME280_humidity;BME280_pressure;Samples;Min_cycle;Max_cycle;Signal;HPM_P1;HPM_P2
2022/03/21 00:01:21;;;;;;;55.70;33.80;;;6.70;99.90;;;;;;5035523;28;20049;-77
2022/03/21 00:03:47;;;;;;;51.22;32.55;;;6.80;99.90;;;;;;5052964;28;20623;-78
2022/03/21 00:06:13;;;;;;;54.83;33.08;;;6.80;99.90;;;;;;5052148;28;20045;-77
2022/03/21 00:08:40;;;;;;;51.33;31.15;;;6.90;99.90;;;;;;5052591;28;20190;-78
2022/03/21 00:11:06;;;;;;;51.83;31.98;;;7.00;99.90;;;;;;5051606;28;20132;-78
2022/03/21 00:13:32;;;;;;;50.85;31.10;;;7.00;99.90;;;;;;5052262;28;20508;-78
2022/03/21 00:15:58;;;;;;;52.58;30.67;;;7.00;99.90;;;;;;5052613;28;20051;-77
2022/03/21 00:18:25;;;;;;;48.10;30.40;;;6.90;99.90;;;;;;5035135;28;20049;-77
2022/03/21 00:20:53;;;;;;;49.55;30.25;;;7.00;99.90;;;;;;5052507;28;20118;-77
2022/03/21 00:23:19;;;;;;;49.97;30.67;;;7.00;99.90;;;;;;5051782;28;20527;-77
2022/03/21 00:25:45;;;;;;;51.13;30.17;;;7.00;99.90;;;;;;5053394;28;20471;-78
2022/03/21 00:28:12;;;;;;;48.25;30.55;;;7.00;99.90;;;;;;5052968;28;20056;-78
2022/03/21 00:30:41;;;;;;;49.17;29.20;;;6.90;99.90;;;;;;5052559;28;20041;-78
2022/03/21 00:33:07;;;;;;;48.75;30.08;;;6.90;99.90;;;;;;5051654;28;20095;-78
2022/03/21 00:35:33;;;;;;;44.27;29.50;;;7.10;99.90;;;;;;5035638;28;20500;-78
2022/03/21 00:37:59;;;;;;;47.23;30.33;;;6.90;99.90;;;;;;5019443;28;20284;-77
2022/03/21 00:40:25;;;;;;;47.13;29.23;;;6.90;99.90;;;;;;5051697;28;20291;-77
2022/03/21 00:42:51;;;;;;;45.80;29.20;;;7.10;99.90;;;;;;5051354;28;20036;-77
2022/03/21 00:45:24;;;;;;;46.83;28.38;;;6.80;99.90;;;;;;5051492;28;20041;-78
2022/03/21 00:47:51;;;;;;;47.55;28.67;;;6.90;99.90;;;;;;5051588;28;20037;-78
2022/03/21 00:50:18;;;;;;;45.75;27.67;;;6.90;99.90;;;;;;5051131;28;20044;-77
2022/03/21 00:52:46;;;;;;;45.00;27.65;;;6.90;99.90;;;;;;5034781;28;20404;-78
2022/03/21 00:55:13;;;;;;;47.10;27.67;;;6.90;99.90;;;;;;5051343;28;20051;-78
2022/03/21 00:57:40;;;;;;;48.20;27.30;;;6.90;99.90;;;;;;5035215;28;20049;-78
2022/03/21 01:00:08;;;;;;;44.50;25.05;;;6.80;99.90;;;;;;5051697;28;20427;-78
2022/03/21 01:02:38;;;;;;;42.38;26.02;;;6.80;99.90;;;;;;5051212;28;20064;-78
2022/03/21 01:05:04;;;;;;;45.13;26.77;;;6.90;99.90;;;;;;5034923;28;20537;-78
2022/03/21 01:07:30;;;;;;;41.90;25.73;;;6.80;99.90;;;;;;5050891;28;20041;-78
2022/03/21 01:09:56;;;;;;;42.25;25.20;;;6.90;99.90;;;;;;5051678;28;20040;-78
2022/03/21 01:12:23;;;;;;;41.58;25.48;;;6.90;99.90;;;;;;5050727;28;20080;-78
2022/03/21 01:14:49;;;;;;;39.25;24.02;;;6.80;99.90;;;;;;5051125;28;20080;-77
2022/03/21 01:17:14;;;;;;;41.78;23.83;;;6.80;99.90;;;;;;5032922;28;20095;-78
2022/03/21 01:19:40;;;;;;;39.92;24.48;;;6.80;99.90;;;;;;5051045;28;20076;-77
2022/03/21 01:22:06;;;;;;;40.67;23.10;;;6.80;99.90;;;;;;5050481;28;20395;-78
2022/03/21 01:24:35;;;;;;;41.30;23.73;;;6.70;99.90;;;;;;5050880;28;20048;-78
2022/03/21 01:27:02;;;;;;;35.88;22.20;;;6.80;99.90;;;;;;5051285;28;20845;-78
2022/03/21 01:29:27;;;;;;;;;;;6.80;99.90;;;;;;5050698;28;20055;-78
2022/03/21 01:31:53;;;;;;;34.72;21.48;;;6.80;99.90;;;;;;5050457;28;20011;-78
2022/03/21 01:34:19;;;;;;;35.67;21.90;;;6.80;99.90;;;;;;5031032;28;20049;-78
2022/03/21 01:36:44;;;;;;;41.27;22.03;;;6.80;99.90;;;;;;5032337;28;20286;-78
2022/03/21 01:39:10;;;;;;;35.60;20.83;;;6.70;99.90;;;;;;5030902;28;20359;-79
2022/03/21 01:41:36;;;;;;;35.17;20.37;;;6.70;99.90;;;;;;5031038;28;20046;-78
2022/03/21 01:44:07;;;;;;;33.95;21.27;;;6.70;99.90;;;;;;5014659;28;20099;-78
2022/03/21 01:46:34;;;;;;;37.13;20.98;;;6.70;99.90;;;;;;5030956;28;20042;-77
2022/03/21 01:49:00;;;;;;;33.97;20.08;;;6.60;99.90;;;;;;5031669;28;20042;-78
2022/03/21 01:51:26;;;;;;;37.05;20.08;;;6.90;99.90;;;;;;5017087;28;20044;-77
2022/03/21 01:56:40;;;;;;;33.03;19.38;;;6.60;99.90;;;;;;5050470;28;20052;-78
2022/03/21 01:59:08;;;;;;;35.60;19.83;;;6.70;99.90;;;;;;5050898;28;20038;-78
2022/03/21 02:01:34;;;;;;;32.13;18.35;;;6.40;99.90;;;;;;5034067;28;20037;-78
2022/03/21 02:03:59;;;;;;;32.05;18.55;;;6.40;99.90;;;;;;5050292;28;20044;-78
2022/03/21 02:06:28;;;;;;;31.43;18.73;;;6.40;99.90;;;;;;5049643;28;20554;-78
2022/03/21 02:08:57;;;;;;;29.65;17.58;;;6.40;99.90;;;;;;5050198;28;20314;-78
2022/03/21 02:11:28;;;;;;;30.52;17.63;;;6.50;99.90;;;;;;5048828;28;20386;-77
2022/03/21 02:13:55;;;;;;;28.02;17.42;;;6.30;99.90;;;;;;5050383;28;20377;-78
2022/03/21 02:16:25;;;;;;;34.33;17.00;;;6.30;99.90;;;;;;5049860;28;20044;-78
2022/03/21 02:18:52;;;;;;;29.90;17.58;;;6.30;99.90;;;;;;5050135;28;20041;-78
2022/03/21 02:21:31;;;;;;;28.13;17.45;;;6.50;99.90;;;;;;5049529;28;20072;-78
2022/03/21 02:24:09;;;;;;;30.23;17.20;;;6.20;99.90;;;;;;5049594;28;20049;-78
2022/03/21 02:26:36;;;;;;;33.28;17.50;;;6.10;99.90;;;;;;5049944;28;20041;-79
2022/03/21 02:29:04;;;;;;;29.77;17.40;;;6.10;99.90;;;;;;5049959;28;20107;-78
2022/03/21 02:31:33;;;;;;;32.20;17.83;;;6.10;99.90;;;;;;5049687;28;20492;-78
2022/03/21 02:33:59;;;;;;;27.40;16.80;;;6.10;99.90;;;;;;5049750;28;20056;-78
2022/03/21 02:36:27;;;;;;;29.73;16.33;;;6.00;99.90;;;;;;5032642;28;20133;-78
2022/03/21 02:38:57;;;;;;;28.45;16.58;;;6.00;99.90;;;;;;5049878;28;20045;-78
2022/03/21 02:41:23;;;;;;;29.85;16.52;;;5.90;99.90;;;;;;5048886;28;20369;-78
2022/03/21 02:43:56;;;;;;;27.35;16.75;;;6.30;99.90;;;;;;5049503;28;20047;-78
2022/03/21 02:46:23;;;;;;;27.38;15.98;;;5.90;99.90;;;;;;5049091;28;20040;-78
2022/03/21 02:48:51;;;;;;;30.35;16.35;;;5.80;99.90;;;;;;5049589;28;20045;-78
2022/03/21 02:51:22;;;;;;;28.63;15.73;;;5.80;99.90;;;;;;5048878;28;20037;-78
2022/03/21 02:53:52;;;;;;;29.15;16.00;;;5.80;99.90;;;;;;5049710;28;20041;-78
2022/03/21 02:56:20;;;;;;;27.02;15.68;;;5.80;99.90;;;;;;5032595;28;20041;-78
2022/03/21 02:58:49;;;;;;;30.10;16.23;;;5.80;99.90;;;;;;5050466;28;20043;-78
2022/03/21 03:01:17;;;;;;;26.85;14.70;;;5.90;99.90;;;;;;5049126;28;20087;-78
2022/03/21 03:03:43;;;;;;;29.08;16.25;;;5.70;99.90;;;;;;5049235;28;20056;-78
2022/03/21 03:06:09;;;;;;;;;;;5.70;99.90;;;;;;5050268;28;20041;-77
2022/03/21 03:08:36;;;;;;;23.42;14.73;;;5.70;99.90;;;;;;5032390;28;19924;-78
2022/03/21 03:11:02;;;;;;;28.67;16.10;;;5.60;99.90;;;;;;5032582;28;20131;-77
2022/03/21 03:13:28;;;;;;;25.75;15.35;;;5.70;99.90;;;;;;5048815;28;20056;-78
2022/03/21 03:15:54;;;;;;;30.33;16.33;;;5.60;99.90;;;;;;5048883;28;20040;-78
2022/03/21 03:18:20;;;;;;;26.98;15.60;;;5.60;99.90;;;;;;5032408;28;20396;-78
2022/03/21 03:20:51;;;;;;;24.23;14.88;;;5.50;99.90;;;;;;5049600;28;20052;-78
2022/03/21 03:23:22;;;;;;;27.38;14.98;;;5.40;99.90;;;;;;5051297;28;20041;-77
2022/03/21 03:26:02;;;;;;;25.55;15.23;;;5.80;99.90;;;;;;5053254;28;20072;-78
2022/03/21 03:28:29;;;;;;;28.02;15.25;;;5.40;99.90;;;;;;5052909;28;20051;-77
2022/03/21 03:30:55;;;;;;;25.58;15.88;;;5.30;99.90;;;;;;5052841;28;20071;-79
2022/03/21 03:33:22;;;;;;;26.77;14.60;;;5.40;99.90;;;;;;5051493;28;20049;-78
2022/03/21 03:35:48;;;;;;;26.98;15.48;;;5.30;99.90;;;;;;5053340;28;20373;-78
2022/03/21 03:38:15;;;;;;;28.20;15.88;;;5.30;99.90;;;;;;5019727;28;20051;-78
2022/03/21 03:40:43;;;;;;;25.10;15.38;;;5.30;99.90;;;;;;5053225;28;20130;-78
2022/03/21 03:43:10;;;;;;;27.40;15.20;;;5.20;99.90;;;;;;5053203;28;20041;-78
2022/03/21 03:45:36;;;;;;;28.83;15.07;;;5.50;99.90;;;;;;5052367;28;20049;-78
2022/03/21 03:48:02;;;;;;;30.38;15.75;;;5.30;99.90;;;;;;5053147;28;20492;-79
2022/03/21 03:50:28;;;;;;;29.67;16.52;;;5.20;99.90;;;;;;5052323;28;20476;-79
2022/03/21 03:52:54;;;;;;;28.52;16.35;;;5.20;99.90;;;;;;5052905;28;20043;-78
2022/03/21 03:55:19;;;;;;;27.00;17.17;;;5.30;99.90;;;;;;5035918;28;20116;-78
2022/03/21 03:57:47;;;;;;;27.98;15.77;;;5.20;99.90;;;;;;5053040;28;20098;-78
2022/03/21 04:00:15;;;;;;;24.77;15.35;;;5.20;99.90;;;;;;5053044;28;20049;-78
2022/03/21 04:05:26;;;;;;;24.77;14.85;;;5.20;99.90;;;;;;5038314;28;20045;-77
2022/03/21 04:07:52;;;;;;;30.10;16.02;;;5.20;99.90;;;;;;5052485;28;20076;-77
2022/03/21 04:10:21;;;;;;;27.42;15.10;;;5.20;99.90;;;;;;5052826;28;20043;-78
2022/03/21 04:12:48;;;;;;;27.15;15.23;;;5.20;99.90;;;;;;5052455;28;20049;-77
2022/03/21 04:15:14;;;;;;;30.00;15.90;;;5.20;99.90;;;;;;5052467;28;20052;-77
2022/03/21 04:17:40;;;;;;;28.08;15.85;;;5.40;99.90;;;;;;5035739;28;20041;-77
2022/03/21 04:20:07;;;;;;;29.70;16.08;;;5.50;99.90;;;;;;5035944;28;20431;-78
2022/03/21 04:22:37;;;;;;;28.67;15.68;;;5.20;99.90;;;;;;5051757;28;20150;-78
2022/03/21 04:25:05;;;;;;;26.58;15.45;;;5.20;99.90;;;;;;5052115;28;20072;-77
2022/03/21 04:27:32;;;;;;;27.08;15.05;;;5.20;99.90;;;;;;5017981;28;20049;-78
2022/03/21 04:29:57;;;;;;;26.85;15.75;;;5.20;99.90;;;;;;5051930;28;20048;-78
2022/03/21 04:32:23;;;;;;;27.40;15.03;;;5.70;99.90;;;;;;5051465;28;20124;-78
2022/03/21 04:34:49;;;;;;;25.17;14.90;;;5.30;99.90;;;;;;5050966;28;20051;-78
2022/03/21 04:37:15;;;;;;;29.90;16.00;;;5.10;99.90;;;;;;5052066;28;20511;-78
2022/03/21 04:39:40;;;;;;;26.98;15.45;;;5.10;99.90;;;;;;5034799;28;20281;-78
2022/03/21 04:42:06;;;;;;;26.73;15.85;;;5.10;99.90;;;;;;5051535;28;20488;-78
2022/03/21 04:44:32;;;;;;;27.02;15.93;;;5.10;99.90;;;;;;5051192;28;20045;-78
2022/03/21 04:46:58;;;;;;;27.65;15.68;;;5.00;99.90;;;;;;5051896;28;20048;-78
2022/03/21 04:49:23;;;;;;;31.67;16.73;;;5.00;99.90;;;;;;5051293;28;20041;-78
2022/03/21 04:51:49;;;;;;;28.75;15.65;;;4.90;99.90;;;;;;5051882;28;20304;-77
2022/03/21 04:54:15;;;;;;;27.45;15.88;;;4.90;99.90;;;;;;5035575;28;20136;-77
2022/03/21 04:56:41;;;;;;;30.57;17.37;;;4.80;99.90;;;;;;5050731;28;20045;-77
2022/03/21 04:59:07;;;;;;;29.13;16.20;;;4.90;99.90;;;;;;5034971;28;20283;-77
2022/03/21 05:01:33;;;;;;;26.75;16.15;;;4.90;99.90;;;;;;5051413;28;20500;-77
2022/03/21 05:04:00;;;;;;;26.25;15.05;;;4.80;99.90;;;;;;5035059;28;20041;-77
2022/03/21 05:06:25;;;;;;;27.17;16.05;;;4.80;99.90;;;;;;5034718;28;20116;-78
2022/03/21 05:08:51;;;;;;;29.10;16.15;;;4.80;99.90;;;;;;5051552;28;20166;-77
2022/03/21 05:11:17;;;;;;;29.75;16.23;;;5.10;99.90;;;;;;5060108;28;20519;-77
2022/03/21 05:13:43;;;;;;;28.52;16.85;;;4.70;99.90;;;;;;5037611;28;20048;-78
2022/03/21 05:16:09;;;;;;;30.42;16.27;;;4.70;99.90;;;;;;5054695;28;20051;-77
2022/03/21 05:18:34;;;;;;;29.23;16.60;;;4.70;99.90;;;;;;5037542;28;20105;-77
2022/03/21 05:21:04;;;;;;;30.23;16.48;;;4.60;99.90;;;;;;5054588;28;20049;-77
2022/03/21 05:32:03;;;;;;;30.52;17.20;;;4.60;99.90;;;;;;5022428;28;20424;-77
2022/03/21 05:37:13;;;;;;;33.17;17.15;;;4.60;99.90;;;;;;5034052;28;20129;-78
2022/03/21 05:40:31;;;;;;;32.73;16.77;;;4.50;99.90;;;;;;5033756;28;20132;-78
2022/03/21 05:42:25;;;;;;;33.17;16.23;;;4.80;99.90;;;;;;5020094;28;20334;-78
2022/03/21 05:44:51;;;;;;;;;;;4.50;99.90;;;;;;5034309;28;20071;-78
2022/03/21 05:47:17;;;;;;;31.20;16.30;;;4.50;99.90;;;;;;5034562;28;20054;-78
2022/03/21 05:49:42;;;;;;;26.73;16.17;;;4.40;99.90;;;;;;5017447;28;20048;-78
2022/03/21 05:52:08;;;;;;;32.30;17.57;;;4.50;99.90;;;;;;5050519;28;20294;-77
2022/03/21 05:54:34;;;;;;;29.25;16.48;;;4.40;99.90;;;;;;5037139;28;20271;-77
2022/03/21 05:56:59;;;;;;;30.50;16.80;;;4.40;99.90;;;;;;5037126;28;20051;-78
2022/03/21 06:02:09;;;;;;;30.48;16.98;;;4.40;99.90;;;;;;5053802;28;20048;-78
2022/03/21 06:04:35;;;;;;;33.30;16.70;;;4.40;99.90;;;;;;5053133;28;20048;-77
2022/03/21 06:07:00;;;;;;;40.13;16.90;;;4.40;99.90;;;;;;5053110;28;20774;-78
2022/03/21 06:09:26;;;;;;;31.50;16.70;;;4.50;99.90;;;;;;5053334;28;20048;-78
2022/03/21 06:11:52;;;;;;;29.90;16.87;;;4.50;99.90;;;;;;5053407;28;20091;-78
2022/03/21 06:14:18;;;;;;;31.70;16.27;;;4.50;99.90;;;;;;5053700;28;20343;-78
2022/03/21 06:16:45;;;;;;;30.63;16.20;;;4.60;99.90;;;;;;5053251;28;20055;-78
2022/03/21 06:19:10;;;;;;;29.45;16.13;;;4.60;99.90;;;;;;5053352;28;20550;-79
2022/03/21 06:21:36;;;;;;;28.80;15.67;;;4.60;99.90;;;;;;5053041;28;20139;-78
2022/03/21 06:24:02;;;;;;;26.67;14.87;;;4.60;99.90;;;;;;5053182;28;20064;-78
2022/03/21 06:26:27;;;;;;;32.38;15.43;;;4.60;99.90;;;;;;5052535;28;20043;-78
2022/03/21 06:28:53;;;;;;;27.43;15.47;;;5.00;99.90;;;;;;5032915;28;20040;-78
2022/03/21 06:31:19;;;;;;;33.90;16.93;;;5.20;99.90;;;;;;5016838;28;20804;-78
2022/03/21 06:33:45;;;;;;;29.33;16.23;;;5.00;99.90;;;;;;5032578;28;20533;-78
2022/03/21 06:36:11;;;;;;;32.90;17.48;;;4.90;99.90;;;;;;5033419;28;20560;-78
2022/03/21 06:38:37;;;;;;;32.88;16.80;;;5.00;99.90;;;;;;5016672;28;20505;-78
2022/03/21 06:41:04;;;;;;;31.42;17.92;;;5.10;99.90;;;;;;5033077;28;20053;-78
2022/03/21 06:43:29;;;;;;;;;;;5.10;99.90;;;;;;5033361;28;20526;-77
2022/03/21 06:45:56;;;;;;;29.90;17.27;;;5.40;99.90;;;;;;5053213;28;19916;-78
2022/03/21 06:48:23;;;;;;;31.67;17.00;;;5.50;99.90;;;;;;5052706;28;20051;-78
2022/03/21 06:50:51;;;;;;;34.80;17.92;;;5.60;99.90;;;;;;5035993;28;20048;-78
2022/03/21 06:53:18;;;;;;;31.02;17.75;;;5.80;99.90;;;;;;5053084;28;20048;-78
2022/03/21 06:55:45;;;;;;;32.20;17.77;;;5.90;99.90;;;;;;5052595;28;20040;-78
2022/03/21 06:58:13;;;;;;;29.33;16.98;;;6.10;99.90;;;;;;5035884;28;20476;-77
2022/03/21 07:00:40;;;;;;;29.70;16.60;;;6.40;99.90;;;;;;5051971;28;20080;-78
2022/03/21 07:03:06;;;;;;;32.22;16.50;;;6.40;99.90;;;;;;5036165;28;20047;-78
2022/03/21 07:05:32;;;;;;;31.05;16.63;;;6.60;99.90;;;;;;5052444;28;20430;-78
2022/03/21 07:07:57;;;;;;;28.80;16.25;;;6.70;99.90;;;;;;5052678;28;20119;-78
2022/03/21 07:10:23;;;;;;;28.13;16.33;;;6.90;99.90;;;;;;5052627;28;20589;-78
2022/03/21 07:12:49;;;;;;;29.67;15.50;;;7.00;99.90;;;;;;5070243;28;20044;-78
2022/03/21 07:15:15;;;;;;;29.20;16.60;;;7.00;99.90;;;;;;5035828;28;20052;-78
2022/03/21 07:17:44;;;;;;;29.60;15.63;;;7.10;99.90;;;;;;5051775;28;20049;-79
2022/03/21 07:20:12;;;;;;;27.90;16.23;;;7.30;99.90;;;;;;5052481;28;20098;-78
2022/03/21 07:22:38;;;;;;;27.20;15.60;;;7.40;99.90;;;;;;5035579;28;20457;-78
2022/03/21 07:25:06;;;;;;;26.25;15.98;;;7.60;99.90;;;;;;5036093;28;20044;-78
2022/03/21 07:27:32;;;;;;;28.30;16.27;;;7.70;99.90;;;;;;5052149;28;20500;-78
2022/03/21 07:29:58;;;;;;;27.35;15.85;;;7.80;99.90;;;;;;5052639;28;20049;-78
2022/03/21 07:32:24;;;;;;;27.15;16.40;;;8.10;99.90;;;;;;5052110;28;20056;-78
2022/03/21 07:34:49;;;;;;;28.47;17.00;;;8.40;99.90;;;;;;5052139;28;20442;-78
2022/03/21 07:37:15;;;;;;;24.23;15.65;;;8.90;99.90;;;;;;5052374;28;20044;-78
2022/03/21 07:39:44;;;;;;;24.77;16.02;;;9.70;99.90;;;;;;5052171;28;20487;-78
2022/03/21 07:42:14;;;;;;;24.23;15.13;;;10.30;99.90;;;;;;5036063;28;20381;-78
2022/03/21 07:47:23;;;;;;;23.00;13.82;;;11.50;99.90;;;;;;5070119;28;20056;-78
2022/03/21 07:49:51;;;;;;;23.10;13.85;;;11.90;99.90;;;;;;5051666;28;20516;-78
2022/03/21 07:52:18;;;;;;;23.00;14.50;;;12.20;99.90;;;;;;5052491;28;20562;-78
2022/03/21 07:54:51;;;;;;;22.35;13.50;;;12.60;99.90;;;;;;5051753;28;20080;-78
2022/03/21 07:57:17;;;;;;;21.70;14.13;;;13.20;99.90;;;;;;5052239;28;20128;-78
2022/03/21 07:59:43;;;;;;;20.55;13.15;;;13.60;99.90;;;;;;5051764;28;20535;-77
2022/03/21 08:02:09;;;;;;;23.42;13.95;;;13.90;99.90;;;;;;5052412;28;20119;-78
2022/03/21 08:04:34;;;;;;;21.38;14.15;;;14.20;99.90;;;;;;5051543;28;20036;-79
2022/03/21 08:07:00;;;;;;;23.67;13.60;;;14.30;99.90;;;;;;5052034;28;20040;-79
2022/03/21 08:09:27;;;;;;;22.45;13.90;;;14.70;99.90;;;;;;5054758;28;20530;-78
2022/03/21 08:11:54;;;;;;;20.75;13.75;;;14.80;99.90;;;;;;5055352;28;20068;-78
2022/03/21 08:14:21;;;;;;;18.60;13.13;;;15.00;99.90;;;;;;5039059;28;20052;-78
2022/03/21 08:16:46;;;;;;;22.45;13.30;;;15.30;99.90;;;;;;5055337;28;20044;-78
2022/03/21 08:19:12;;;;;;;18.55;12.73;;;15.70;99.90;;;;;;5055763;28;20086;-78
2022/03/21 08:21:37;;;;;;;19.95;13.25;;;15.80;99.90;;;;;;5054537;28;20076;-78
2022/03/21 08:24:04;;;;;;;19.67;12.88;;;16.00;99.90;;;;;;5055553;28;20044;-78
2022/03/21 08:26:29;;;;;;;19.42;13.90;;;16.10;99.90;;;;;;5055396;28;20174;-79
2022/03/21 08:28:55;;;;;;;18.20;13.05;;;16.20;99.90;;;;;;5055333;28;20504;-79
2022/03/21 08:31:21;;;;;;;24.17;14.10;;;16.60;99.90;;;;;;5055685;28;20036;-79
2022/03/21 08:33:47;;;;;;;;;;;16.80;99.90;;;;;;5055405;28;20056;-79
2022/03/21 08:36:13;;;;;;;21.27;13.13;;;16.80;99.90;;;;;;5055633;28;19921;-79
2022/03/21 08:38:39;;;;;;;21.75;14.32;;;17.00;99.90;;;;;;5037945;28;20132;-79
2022/03/21 08:41:05;;;;;;;20.10;13.43;;;17.20;99.90;;;;;;5055039;28;20080;-79
2022/03/21 08:43:31;;;;;;;23.35;13.95;;;17.20;99.90;;;;;;5055349;28;20504;-77
2022/03/21 08:45:56;;;;;;;19.38;14.00;;;17.40;99.90;;;;;;5055240;28;20076;-78
2022/03/21 08:49:23;;;;;;;18.65;13.80;;;17.40;99.90;;;;;;5055038;28;20047;-78
2022/03/21 08:51:09;;;;;;;22.63;13.93;;;17.60;99.90;;;;;;5054864;28;20048;-78
2022/03/21 08:53:35;;;;;;;24.25;14.55;;;17.80;99.90;;;;;;5054672;28;20621;-79
2022/03/21 08:56:01;;;;;;;20.63;13.50;;;18.30;99.10;;;;;;5055034;28;20067;-79
2022/03/21 08:58:27;;;;;;;21.45;14.40;;;18.60;97.70;;;;;;5072906;28;20121;-79
2022/03/21 09:00:52;;;;;;;20.27;13.55;;;18.90;97.50;;;;;;5054270;28;20077;-79
2022/03/21 09:03:18;;;;;;;23.80;14.25;;;19.40;97.10;;;;;;5054862;28;20391;-79
2022/03/21 09:05:46;;;;;;;18.45;13.40;;;19.30;95.40;;;;;;5054299;28;20029;-79
2022/03/21 09:08:11;;;;;;;21.30;14.40;;;19.10;95.70;;;;;;5054781;28;20044;-79
2022/03/21 09:10:38;;;;;;;22.52;14.15;;;19.70;93.50;;;;;;5037937;28;20039;-79
2022/03/21 09:13:05;;;;;;;;;;;19.60;92.70;;;;;;5055291;28;20056;-79
2022/03/21 09:15:31;;;;;;;;;;;20.00;92.70;;;;;;5055188;28;19917;-79
2022/03/21 09:17:57;;;;;;;20.60;13.65;;;20.00;90.20;;;;;;5054006;28;19924;-79
2022/03/21 09:20:23;;;;;;;21.83;14.32;;;20.40;90.50;;;;;;5053998;28;20049;-79
2022/03/21 09:22:49;;;;;;;21.08;14.98;;;20.60;88.80;;;;;;5054186;28;20056;-79
2022/03/21 09:25:17;;;;;;;19.75;13.55;;;20.20;86.40;;;;;;5038006;28;20033;-78
2022/03/21 09:27:42;;;;;;;18.95;13.15;;;21.00;85.70;;;;;;5071933;28;20045;-78
2022/03/21 09:30:10;;;;;;;20.15;13.80;;;20.70;83.90;;;;;;5054420;28;20090;-78
2022/03/21 09:32:36;;;;;;;19.90;14.55;;;21.00;84.10;;;;;;5054092;28;20047;-79
2022/03/21 09:35:03;;;;;;;21.48;13.98;;;21.00;82.10;;;;;;5072355;28;20044;-78
2022/03/21 09:37:28;;;;;;;20.67;13.88;;;21.10;81.10;;;;;;5054435;28;20040;-78
2022/03/21 09:39:55;;;;;;;18.70;13.55;;;21.40;82.40;;;;;;5054335;28;20040;-78
2022/03/21 09:42:21;;;;;;;20.20;14.23;;;21.70;79.60;;;;;;5054222;28;20055;-78
2022/03/21 09:44:52;;;;;;;20.65;14.02;;;21.50;79.80;;;;;;5053711;28;20036;-78
2022/03/21 09:50:12;;;;;;;23.95;13.98;;;21.20;76.60;;;;;;5053816;28;20572;-78
2022/03/21 09:52:39;;;;;;;20.05;14.15;;;21.10;78.10;;;;;;5036900;28;20044;-78
2022/03/21 09:55:07;;;;;;;21.48;14.38;;;21.50;76.80;;;;;;5037461;28;20514;-79
2022/03/21 09:57:33;;;;;;;21.33;13.60;;;21.70;76.30;;;;;;5053532;28;20040;-78
2022/03/21 09:59:59;;;;;;;19.40;13.68;;;22.00;74.80;;;;;;5053565;28;20062;-78
2022/03/21 10:02:25;;;;;;;;;;;22.50;71.10;;;;;;5053968;28;20123;-79
2022/03/21 10:04:51;;;;;;;18.23;12.75;;;22.20;69.80;;;;;;5053230;28;19991;-77
2022/03/21 10:07:23;;;;;;;;;;;22.10;68.80;;;;;;5054053;28;20051;-77
2022/03/21 10:10:08;;;;;;;20.73;13.52;;;22.70;69.00;;;;;;5036622;28;20354;-78
2022/03/21 10:12:35;;;;;;;18.70;13.57;;;22.50;67.90;;;;;;5052742;28;20056;-77
2022/03/21 10:15:05;;;;;;;16.67;12.05;;;22.50;68.30;;;;;;5053154;28;20048;-78
2022/03/21 10:17:31;;;;;;;17.95;12.23;;;22.70;64.90;;;;;;5053121;28;20052;-78
2022/03/21 10:19:56;;;;;;;;;;;23.20;64.70;;;;;;5053785;28;20133;-78
2022/03/21 10:22:34;;;;;;;18.63;13.38;;;22.90;63.20;;;;;;5037015;28;19946;-78
2022/03/21 10:25:16;;;;;;;18.02;13.18;;;23.30;64.00;;;;;;5052986;28;20387;-78
2022/03/21 10:27:47;;;;;;;18.92;13.65;;;23.30;63.80;;;;;;5052855;28;20380;-78
2022/03/21 10:30:18;;;;;;;20.75;13.93;;;23.60;64.50;;;;;;5053240;28;20045;-78
2022/03/21 10:32:52;;;;;;;20.02;14.23;;;23.80;63.20;;;;;;5069766;28;20050;-79
2022/03/21 10:35:22;;;;;;;19.08;13.65;;;23.60;63.20;;;;;;5053065;28;20040;-78
2022/03/21 10:37:58;;;;;;;17.58;13.25;;;22.90;62.10;;;;;;5052495;28;20048;-79
2022/03/21 10:40:28;;;;;;;20.48;13.40;;;23.20;61.30;;;;;;5053504;28;20453;-78
2022/03/21 10:43:09;;;;;;;16.15;13.52;;;23.30;60.90;;;;;;5052538;28;20479;-78
2022/03/21 10:45:35;;;;;;;17.15;13.23;;;23.30;60.10;;;;;;5052914;28;20075;-78
2022/03/21 10:48:03;;;;;;;;;;;23.50;61.40;;;;;;5053114;28;20083;-78
2022/03/21 10:50:31;;;;;;;18.27;13.95;;;23.40;60.00;;;;;;5052723;28;19928;-78
2022/03/21 10:53:19;;;;;;;16.73;13.38;;;23.50;60.90;;;;;;5052298;28;20058;-77
2022/03/21 10:55:47;;;;;;;20.85;12.48;;;23.50;60.00;;;;;;5052315;28;20052;-78
2022/03/21 10:58:15;;;;;;;17.55;12.68;;;23.70;61.00;;;;;;5053121;28;20055;-79
2022/03/21 11:00:41;;;;;;;15.82;12.50;;;24.60;61.00;;;;;;5052868;28;20052;-78
2022/03/21 11:03:16;;;;;;;19.15;13.70;;;24.50;60.20;;;;;;5053067;28;20098;-78
2022/03/21 11:05:48;;;;;;;17.08;13.20;;;24.40;61.10;;;;;;5036604;28;20045;-77
2022/03/21 11:08:17;;;;;;;18.80;13.45;;;24.60;61.10;;;;;;5052987;28;20422;-78
2022/03/21 11:10:44;;;;;;;18.38;13.52;;;25.20;59.60;;;;;;5052435;28;20484;-77
2022/03/21 11:13:11;;;;;;;18.38;13.43;;;25.40;58.70;;;;;;5052918;28;20063;-77
2022/03/21 11:15:40;;;;;;;19.00;13.57;;;25.20;58.90;;;;;;5053034;28;20601;-77
2022/03/21 11:18:07;;;;;;;17.92;12.57;;;24.90;58.10;;;;;;5052646;28;20589;-78
2022/03/21 11:20:33;;;;;;;15.93;12.70;;;24.30;56.50;;;;;;5052714;28;20037;-78
2022/03/21 11:23:00;;;;;;;17.88;13.25;;;24.30;58.30;;;;;;5052564;28;20045;-78
2022/03/21 11:25:31;;;;;;;18.92;12.68;;;25.10;58.70;;;;;;5043033;28;20037;-78
2022/03/21 11:28:32;;;;;;;16.10;12.27;;;25.80;57.00;;;;;;5032463;28;20183;-77
2022/03/21 11:30:57;;;;;;;16.55;12.10;;;25.30;57.10;;;;;;4934110;29;20043;-77
2022/03/21 11:33:59;;;;;;;18.40;12.13;;;25.20;56.00;;;;;;5012094;28;20105;-77
2022/03/21 11:36:24;;;;;;;19.00;13.35;;;25.20;55.80;;;;;;5050587;28;20094;-77
2022/03/21 11:38:57;;;;;;;14.13;12.00;;;25.00;57.10;;;;;;5032050;28;20029;-77
2022/03/21 11:41:26;;;;;;;16.08;12.10;;;25.50;55.90;;;;;;5032830;28;20116;-77
2022/03/21 11:44:04;;;;;;;15.73;12.18;;;25.50;56.40;;;;;;5014364;28;20115;-78
2022/03/21 11:46:34;;;;;;;17.20;12.15;;;25.00;56.60;;;;;;5033268;28;20408;-78
2022/03/21 11:49:02;;;;;;;16.08;12.07;;;25.40;55.90;;;;;;5016302;28;20102;-77
2022/03/21 11:51:40;;;;;;;15.30;11.70;;;25.30;56.30;;;;;;4999974;28;20033;-77
2022/03/21 11:54:33;;;;;;;18.15;13.00;;;25.30;56.80;;;;;;5016271;28;20123;-77
2022/03/21 11:57:07;;;;;;;14.65;12.00;;;24.90;55.50;;;;;;5016015;28;20124;-78
2022/03/21 11:59:35;;;;;;;17.60;12.45;;;25.30;56.60;;;;;;5028097;28;20102;-77
2022/03/21 12:02:10;;;;;;;16.98;12.55;;;25.30;56.30;;;;;;5055498;28;20084;-77
2022/03/21 12:04:40;;;;;;;17.38;11.88;;;25.30;55.10;;;;;;5055755;28;20067;-77
2022/03/21 12:07:11;;;;;;;15.90;12.00;;;25.40;56.70;;;;;;5038992;28;20032;-77
2022/03/21 12:09:51;;;;;;;16.63;12.57;;;25.60;56.00;;;;;;5055734;28;20043;-77
2022/03/21 12:12:17;;;;;;;18.02;12.18;;;26.60;55.40;;;;;;5073847;28;20052;-77
2022/03/21 12:14:46;;;;;;;19.73;12.40;;;26.30;55.90;;;;;;5055541;28;20124;-77
2022/03/21 12:17:11;;;;;;;17.17;12.68;;;26.00;56.40;;;;;;5032057;28;20057;-76
2022/03/21 12:19:58;;;;;;;16.45;12.73;;;25.80;55.70;;;;;;5015788;28;20049;-76
2022/03/21 12:22:29;;;;;;;16.08;12.55;;;26.10;55.20;;;;;;5015885;28;20115;-77
2022/03/21 12:25:07;;;;;;;15.88;11.65;;;26.40;55.30;;;;;;5033432;28;20041;-77
2022/03/21 12:27:43;;;;;;;16.15;11.60;;;27.20;54.70;;;;;;4999791;28;20516;-77
2022/03/21 12:30:22;;;;;;;18.45;11.68;;;26.80;54.90;;;;;;5015360;28;20045;-77
2022/03/21 12:33:07;;;;;;;14.30;11.40;;;26.70;55.00;;;;;;5032610;28;20049;-76
2022/03/21 12:35:51;;;;;;;17.67;12.68;;;26.60;55.10;;;;;;5032145;28;20041;-76
2022/03/21 12:38:22;;;;;;;17.15;11.77;;;26.80;55.30;;;;;;5037451;28;20097;-77
2022/03/21 12:40:50;;;;;;;16.70;12.02;;;26.70;55.10;;;;;;5038908;28;20058;-77
2022/03/21 12:43:38;;;;;;;16.10;11.80;;;26.90;54.80;;;;;;5038885;28;20040;-77
2022/03/21 12:46:11;;;;;;;14.45;11.35;;;26.40;54.00;;;;;;5054751;28;20041;-77
2022/03/21 12:48:42;;;;;;;14.32;11.43;;;26.70;53.60;;;;;;5054975;28;20041;-76
2022/03/21 12:51:13;;;;;;;15.65;11.48;;;26.20;53.50;;;;;;5072752;28;20603;-76
2022/03/21 12:53:48;;;;;;;16.92;11.57;;;26.40;53.80;;;;;;5045927;28;20056;-74
2022/03/21 12:56:19;;;;;;;15.85;11.43;;;26.40;52.60;;;;;;5034291;28;20496;-74
2022/03/21 12:58:47;;;;;;;17.77;11.48;;;26.50;54.50;;;;;;5035270;28;20052;-74
2022/03/21 13:01:14;;;;;;;16.63;11.18;;;26.10;55.50;;;;;;5018101;28;20182;-74
2022/03/21 13:03:40;;;;;;;14.48;11.43;;;26.70;53.80;;;;;;5034593;28;20045;-74
2022/03/21 13:11:45;;;;;;;15.65;10.77;;;26.60;52.70;;;;;;5038759;28;20057;-74